sensor_id;sensor_type;location;lat;lon;timestamp;pressure;altitude;pressure_sealevel;temperature;humidity
6423;BME280;3244;42.708;23.288;2022-09-03T00:00:39;94995.00;;;19.28;nan
6423;BME280;3244;42.708;23.288;2022-09-03T00:03:12;94997.34;;;19.31;nan
6423;BME280;3244;42.708;23.288;2022-09-03T00:05:47;95003.41;;;19.30;nan
6423;BME280;3244;42.708;23.288;2022-09-03T00:08:20;95004.38;;;19.17;nan
6423;BME280;3244;42.708;23.288;2022-09-03T00:10:52;95005.91;;;19.07;nan
6423;BME280;3244;42.708;23.288;2022-09-03T00:13:24;95006.72;;;19.07;nan
6423;BME280;3244;42.708;23.288;2022-09-03T00:15:56;95004.06;;;19.09;nan
6423;BME280;3244;42.708;23.288;2022-09-03T00:18:27;95007.34;;;18.85;nan
6423;BME280;3244;42.708;23.288;2022-09-03T00:21:01;95010.06;;;18.96;nan
6423;BME280;3244;42.708;23.288;2022-09-03T00:23:34;94991.81;;;18.87;nan
6423;BME280;3244;42.708;23.288;2022-09-03T00:26:16;95002.22;;;18.73;nan
6423;BME280;3244;42.708;23.288;2022-09-03T00:28:46;94989.84;;;18.65;nan
6423;BME280;3244;42.708;23.288;2022-09-03T00:31:17;94989.66;;;18.68;nan
6423;BME280;3244;42.708;23.288;2022-09-03T00:33:46;94994.00;;;18.80;nan
6423;BME280;3244;42.708;23.288;2022-09-03T00:36:20;94987.59;;;18.73;nan
6423;BME280;3244;42.708;23.288;2022-09-03T00:38:49;94982.84;;;18.67;nan
6423;BME280;3244;42.708;23.288;2022-09-03T00:41:26;94984.41;;;18.69;nan
6423;BME280;3244;42.708;23.288;2022-09-03T00:44:11;94992.41;;;18.65;nan
6423;BME280;3244;42.708;23.288;2022-09-03T00:46:44;94982.44;;;18.60;nan
6423;BME280;3244;42.708;23.288;2022-09-03T00:49:24;94989.66;;;18.68;nan
6423;BME280;3244;42.708;23.288;2022-09-03T00:51:59;94993.97;;;18.93;nan
6423;BME280;3244;42.708;23.288;2022-09-03T00:54:33;94988.59;;;19.09;nan
6423;BME280;3244;42.708;23.288;2022-09-03T00:57:18;94999.84;;;18.95;nan
6423;BME280;3244;42.708;23.288;2022-09-03T00:59:56;94995.22;;;18.87;nan
6423;BME280;3244;42.708;23.288;2022-09-03T01:02:30;94999.94;;;18.93;nan
6423;BME280;3244;42.708;23.288;2022-09-03T01:05:06;94998.31;;;19.05;nan
6423;BME280;3244;42.708;23.288;2022-09-03T01:07:40;94991.28;;;19.07;nan
6423;BME280;3244;42.708;23.288;2022-09-03T01:10:20;94990.28;;;18.97;nan
6423;BME280;3244;42.708;23.288;2022-09-03T01:12:58;94992.13;;;18.82;nan
6423;BME280;3244;42.708;23.288;2022-09-03T01:15:34;94992.84;;;18.97;nan
6423;BME280;3244;42.708;23.288;2022-09-03T01:18:12;94992.22;;;18.93;nan
6423;BME280;3244;42.708;23.288;2022-09-03T01:20:49;94991.59;;;18.90;nan
6423;BME280;3244;42.708;23.288;2022-09-03T01:23:37;95006.97;;;19.04;nan
6423;BME280;3244;42.708;23.288;2022-09-03T01:26:19;95003.03;;;19.11;nan
6423;BME280;3244;42.708;23.288;2022-09-03T01:29:01;95005.31;;;18.90;nan
6423;BME280;3244;42.708;23.288;2022-09-03T01:31:37;95012.53;;;18.98;nan
6423;BME280;3244;42.708;23.288;2022-09-03T01:34:16;95023.00;;;19.08;nan
6423;BME280;3244;42.708;23.288;2022-09-03T01:36:51;95028.47;;;18.90;nan
6423;BME280;3244;42.708;23.288;2022-09-03T01:39:28;95028.59;;;18.89;nan
6423;BME280;3244;42.708;23.288;2022-09-03T01:42:04;95031.16;;;18.76;nan
6423;BME280;3244;42.708;23.288;2022-09-03T01:44:50;95034.44;;;18.39;nan
6423;BME280;3244;42.708;23.288;2022-09-03T01:47:26;95030.94;;;18.40;nan
6423;BME280;3244;42.708;23.288;2022-09-03T01:50:00;95021.19;;;18.05;nan
6423;BME280;3244;42.708;23.288;2022-09-03T01:52:41;95009.16;;;18.06;nan
6423;BME280;3244;42.708;23.288;2022-09-03T01:55:20;95016.81;;;17.93;nan
6423;BME280;3244;42.708;23.288;2022-09-03T01:57:54;95006.13;;;17.99;nan
6423;BME280;3244;42.708;23.288;2022-09-03T02:00:26;95011.28;;;17.99;nan
6423;BME280;3244;42.708;23.288;2022-09-03T02:03:01;95008.94;;;17.82;nan
6423;BME280;3244;42.708;23.288;2022-09-03T02:05:30;95007.44;;;17.92;nan
6423;BME280;3244;42.708;23.288;2022-09-03T02:07:58;95003.13;;;17.92;nan
6423;BME280;3244;42.708;23.288;2022-09-03T02:10:28;95007.16;;;17.96;nan
6423;BME280;3244;42.708;23.288;2022-09-03T02:13:00;95009.56;;;17.85;nan
6423;BME280;3244;42.708;23.288;2022-09-03T02:15:29;95013.94;;;17.97;nan
6423;BME280;3244;42.708;23.288;2022-09-03T02:18:03;95022.00;;;17.79;nan
6423;BME280;3244;42.708;23.288;2022-09-03T02:20:31;95017.50;;;17.68;nan
6423;BME280;3244;42.708;23.288;2022-09-03T02:22:58;95018.34;;;17.68;nan
6423;BME280;3244;42.708;23.288;2022-09-03T02:25:31;95018.25;;;17.70;nan
6423;BME280;3244;42.708;23.288;2022-09-03T02:27:59;95015.19;;;17.63;nan
6423;BME280;3244;42.708;23.288;2022-09-03T02:30:26;95023.00;;;17.76;nan
6423;BME280;3244;42.708;23.288;2022-09-03T02:32:54;95023.09;;;17.75;nan
6423;BME280;3244;42.708;23.288;2022-09-03T02:35:21;95021.53;;;17.72;nan
6423;BME280;3244;42.708;23.288;2022-09-03T02:37:48;95028.88;;;17.78;nan
6423;BME280;3244;42.708;23.288;2022-09-03T02:40:15;95026.03;;;17.68;nan
6423;BME280;3244;42.708;23.288;2022-09-03T02:42:42;95020.50;;;17.60;nan
6423;BME280;3244;42.708;23.288;2022-09-03T02:45:19;95025.31;;;17.66;nan
6423;BME280;3244;42.708;23.288;2022-09-03T02:47:49;95031.28;;;17.53;nan
6423;BME280;3244;42.708;23.288;2022-09-03T02:50:19;95040.81;;;17.51;nan
6423;BME280;3244;42.708;23.288;2022-09-03T02:52:45;95035.59;;;17.52;nan
6423;BME280;3244;42.708;23.288;2022-09-03T02:55:12;95043.66;;;17.46;nan
6423;BME280;3244;42.708;23.288;2022-09-03T02:57:40;95033.03;;;17.38;nan
6423;BME280;3244;42.708;23.288;2022-09-03T03:00:08;95029.25;;;17.44;nan
6423;BME280;3244;42.708;23.288;2022-09-03T03:02:34;95037.44;;;17.50;nan
6423;BME280;3244;42.708;23.288;2022-09-03T03:05:02;95031.38;;;17.51;nan
6423;BME280;3244;42.708;23.288;2022-09-03T03:07:33;95042.19;;;17.42;nan
6423;BME280;3244;42.708;23.288;2022-09-03T03:10:02;95036.41;;;17.39;nan
6423;BME280;3244;42.708;23.288;2022-09-03T03:12:29;95033.75;;;17.40;nan
6423;BME280;3244;42.708;23.288;2022-09-03T03:14:56;95034.34;;;17.31;nan
6423;BME280;3244;42.708;23.288;2022-09-03T03:17:23;95018.91;;;17.31;nan
6423;BME280;3244;42.708;23.288;2022-09-03T03:19:50;95033.28;;;17.33;nan
6423;BME280;3244;42.708;23.288;2022-09-03T03:22:17;95028.00;;;17.22;nan
6423;BME280;3244;42.708;23.288;2022-09-03T03:24:45;95020.28;;;17.22;nan
6423;BME280;3244;42.708;23.288;2022-09-03T03:27:14;95028.00;;;17.22;nan
6423;BME280;3244;42.708;23.288;2022-09-03T03:29:41;95029.19;;;17.31;nan
6423;BME280;3244;42.708;23.288;2022-09-03T03:32:08;95036.31;;;17.40;nan
6423;BME280;3244;42.708;23.288;2022-09-03T03:34:34;95027.31;;;17.33;nan
6423;BME280;3244;42.708;23.288;2022-09-03T03:37:02;95037.06;;;17.42;nan
6423;BME280;3244;42.708;23.288;2022-09-03T03:39:28;95021.19;;;17.35;nan
6423;BME280;3244;42.708;23.288;2022-09-03T03:41:56;95028.88;;;17.35;nan
6423;BME280;3244;42.708;23.288;2022-09-03T03:44:23;95027.97;;;17.37;nan
6423;BME280;3244;42.708;23.288;2022-09-03T03:46:50;95031.03;;;17.29;nan
6423;BME280;3244;42.708;23.288;2022-09-03T03:49:17;95036.13;;;17.43;nan
6423;BME280;3244;42.708;23.288;2022-09-03T03:51:43;95034.69;;;17.53;nan
6423;BME280;3244;42.708;23.288;2022-09-03T03:54:10;95035.09;;;17.60;nan
6423;BME280;3244;42.708;23.288;2022-09-03T03:56:37;95033.34;;;17.60;nan
6423;BME280;3244;42.708;23.288;2022-09-03T03:59:05;95037.44;;;17.50;nan
6423;BME280;3244;42.708;23.288;2022-09-03T04:01:32;95040.19;;;17.47;nan
6423;BME280;3244;42.708;23.288;2022-09-03T04:03:59;95036.97;;;17.44;nan
6423;BME280;3244;42.708;23.288;2022-09-03T04:06:26;95034.50;;;17.42;nan
6423;BME280;3244;42.708;23.288;2022-09-03T04:08:53;95035.31;;;17.43;nan
6423;BME280;3244;42.708;23.288;2022-09-03T04:11:21;95028.16;;;17.33;nan
6423;BME280;3244;42.708;23.288;2022-09-03T04:13:49;95030.63;;;17.35;nan
6423;BME280;3244;42.708;23.288;2022-09-03T04:16:19;95036.06;;;17.30;nan
6423;BME280;3244;42.708;23.288;2022-09-03T04:18:47;95034.50;;;17.28;nan
6423;BME280;3244;42.708;23.288;2022-09-03T04:21:15;95033.88;;;17.24;nan
6423;BME280;3244;42.708;23.288;2022-09-03T04:23:44;95033.78;;;17.26;nan
6423;BME280;3244;42.708;23.288;2022-09-03T04:26:13;95032.41;;;17.20;nan
6423;BME280;3244;42.708;23.288;2022-09-03T04:28:40;95042.13;;;17.29;nan
6423;BME280;3244;42.708;23.288;2022-09-03T04:31:08;95047.81;;;17.20;nan
6423;BME280;3244;42.708;23.288;2022-09-03T04:33:37;95047.25;;;17.29;nan
6423;BME280;3244;42.708;23.288;2022-09-03T04:36:06;95054.22;;;17.27;nan
6423;BME280;3244;42.708;23.288;2022-09-03T04:38:34;95060.19;;;17.28;nan
6423;BME280;3244;42.708;23.288;2022-09-03T04:41:01;95061.56;;;17.19;nan
6423;BME280;3244;42.708;23.288;2022-09-03T04:43:28;95065.34;;;17.28;nan
6423;BME280;3244;42.708;23.288;2022-09-03T04:45:56;95067.69;;;17.17;nan
6423;BME280;3244;42.708;23.288;2022-09-03T04:48:24;95068.06;;;17.11;nan
6423;BME280;3244;42.708;23.288;2022-09-03T04:50:52;95079.06;;;17.13;nan
6423;BME280;3244;42.708;23.288;2022-09-03T04:53:19;95082.09;;;17.19;nan
6423;BME280;3244;42.708;23.288;2022-09-03T04:55:46;95080.56;;;17.31;nan
6423;BME280;3244;42.708;23.288;2022-09-03T04:58:13;95093.28;;;17.32;nan
6423;BME280;3244;42.708;23.288;2022-09-03T05:00:40;95095.59;;;17.37;nan
6423;BME280;3244;42.708;23.288;2022-09-03T05:03:06;95088.28;;;17.31;nan
6423;BME280;3244;42.708;23.288;2022-09-03T05:05:33;95087.44;;;17.30;nan
6423;BME280;3244;42.708;23.288;2022-09-03T05:08:02;95098.72;;;17.42;nan
6423;BME280;3244;42.708;23.288;2022-09-03T05:10:29;95096.16;;;17.56;nan
6423;BME280;3244;42.708;23.288;2022-09-03T05:12:59;95104.78;;;17.55;nan
6423;BME280;3244;42.708;23.288;2022-09-03T05:15:26;95104.97;;;17.52;nan
6423;BME280;3244;42.708;23.288;2022-09-03T05:17:57;95095.22;;;17.43;nan
6423;BME280;3244;42.708;23.288;2022-09-03T05:20:24;95107.34;;;17.41;nan
6423;BME280;3244;42.708;23.288;2022-09-03T05:22:50;95103.03;;;17.27;nan
6423;BME280;3244;42.708;23.288;2022-09-03T05:25:19;95100.38;;;17.43;nan
6423;BME280;3244;42.708;23.288;2022-09-03T05:27:47;95101.00;;;17.47;nan
6423;BME280;3244;42.708;23.288;2022-09-03T05:30:14;95106.16;;;17.47;nan
6423;BME280;3244;42.708;23.288;2022-09-03T05:32:41;95100.84;;;17.50;nan
6423;BME280;3244;42.708;23.288;2022-09-03T05:35:08;95099.38;;;17.46;nan
6423;BME280;3244;42.708;23.288;2022-09-03T05:37:36;95109.84;;;17.57;nan
6423;BME280;3244;42.708;23.288;2022-09-03T05:40:05;95106.88;;;17.34;nan
6423;BME280;3244;42.708;23.288;2022-09-03T05:42:36;95113.69;;;17.50;nan
6423;BME280;3244;42.708;23.288;2022-09-03T05:45:06;95111.38;;;17.59;nan
6423;BME280;3244;42.708;23.288;2022-09-03T05:47:34;95105.31;;;17.60;nan
6423;BME280;3244;42.708;23.288;2022-09-03T05:50:01;95118.91;;;17.62;nan
6423;BME280;3244;42.708;23.288;2022-09-03T05:52:27;95110.53;;;17.59;nan
6423;BME280;3244;42.708;23.288;2022-09-03T05:54:54;95115.88;;;17.56;nan
6423;BME280;3244;42.708;23.288;2022-09-03T05:57:21;95118.81;;;17.64;nan
6423;BME280;3244;42.708;23.288;2022-09-03T05:59:49;95120.13;;;17.71;nan
6423;BME280;3244;42.708;23.288;2022-09-03T06:02:16;95119.38;;;17.83;nan
6423;BME280;3244;42.708;23.288;2022-09-03T06:04:44;95119.19;;;17.86;nan
6423;BME280;3244;42.708;23.288;2022-09-03T06:07:11;95121.13;;;17.97;nan
6423;BME280;3244;42.708;23.288;2022-09-03T06:09:37;95123.13;;;17.92;nan
6423;BME280;3244;42.708;23.288;2022-09-03T06:12:04;95128.28;;;17.92;nan
6423;BME280;3244;42.708;23.288;2022-09-03T06:14:31;95126.50;;;18.07;nan
6423;BME280;3244;42.708;23.288;2022-09-03T06:16:59;95125.50;;;18.36;nan
6423;BME280;3244;42.708;23.288;2022-09-03T06:19:26;95129.19;;;18.73;nan
6423;BME280;3244;42.708;23.288;2022-09-03T06:21:53;95131.38;;;18.79;nan
6423;BME280;3244;42.708;23.288;2022-09-03T06:24:20;95122.31;;;18.86;nan
6423;BME280;3244;42.708;23.288;2022-09-03T06:26:49;95125.56;;;19.02;nan
6423;BME280;3244;42.708;23.288;2022-09-03T06:29:15;95130.78;;;19.53;nan
6423;BME280;3244;42.708;23.288;2022-09-03T06:31:44;95123.69;;;19.93;nan
6423;BME280;3244;42.708;23.288;2022-09-03T06:34:14;95135.50;;;20.21;nan
6423;BME280;3244;42.708;23.288;2022-09-03T06:36:43;95137.16;;;20.10;nan
6423;BME280;3244;42.708;23.288;2022-09-03T06:39:10;95142.06;;;19.89;nan
6423;BME280;3244;42.708;23.288;2022-09-03T06:41:37;95142.19;;;19.75;nan
6423;BME280;3244;42.708;23.288;2022-09-03T06:44:05;95136.06;;;20.01;nan
6423;BME280;3244;42.708;23.288;2022-09-03T06:46:37;95134.72;;;19.95;nan
6423;BME280;3244;42.708;23.288;2022-09-03T06:49:04;95135.56;;;19.96;nan
6423;BME280;3244;42.708;23.288;2022-09-03T06:51:32;95130.84;;;19.64;nan
6423;BME280;3244;42.708;23.288;2022-09-03T06:54:01;95137.53;;;19.29;nan
6423;BME280;3244;42.708;23.288;2022-09-03T06:56:29;95140.50;;;19.35;nan
6423;BME280;3244;42.708;23.288;2022-09-03T06:58:58;95137.00;;;19.24;nan
6423;BME280;3244;42.708;23.288;2022-09-03T07:01:27;95139.06;;;19.19;nan
6423;BME280;3244;42.708;23.288;2022-09-03T07:03:57;95147.09;;;19.14;nan
6423;BME280;3244;42.708;23.288;2022-09-03T07:06:26;95142.13;;;19.11;nan
6423;BME280;3244;42.708;23.288;2022-09-03T07:08:55;95146.47;;;19.11;nan
6423;BME280;3244;42.708;23.288;2022-09-03T07:11:24;95149.31;;;18.93;nan
6423;BME280;3244;42.708;23.288;2022-09-03T07:13:53;95150.09;;;18.81;nan
6423;BME280;3244;42.708;23.288;2022-09-03T07:16:21;95147.38;;;18.97;nan
6423;BME280;3244;42.708;23.288;2022-09-03T07:18:49;95155.31;;;19.07;nan
6423;BME280;3244;42.708;23.288;2022-09-03T07:21:17;95151.53;;;19.25;nan
6423;BME280;3244;42.708;23.288;2022-09-03T07:23:45;95158.56;;;19.86;nan
6423;BME280;3244;42.708;23.288;2022-09-03T07:26:16;95157.44;;;20.76;nan
6423;BME280;3244;42.708;23.288;2022-09-03T07:28:44;95167.63;;;22.16;nan
6423;BME280;3244;42.708;23.288;2022-09-03T07:31:14;95163.53;;;23.32;nan
6423;BME280;3244;42.708;23.288;2022-09-03T07:33:42;95160.44;;;23.38;nan
6423;BME280;3244;42.708;23.288;2022-09-03T07:36:11;95166.19;;;23.21;nan
6423;BME280;3244;42.708;23.288;2022-09-03T07:38:39;95165.41;;;23.09;nan
6423;BME280;3244;42.708;23.288;2022-09-03T07:41:07;95169.88;;;22.75;nan
6423;BME280;3244;42.708;23.288;2022-09-03T07:43:37;95169.88;;;22.75;nan
6423;BME280;3244;42.708;23.288;2022-09-03T07:46:05;95163.34;;;22.49;nan
6423;BME280;3244;42.708;23.288;2022-09-03T07:48:33;95158.50;;;22.55;nan
6423;BME280;3244;42.708;23.288;2022-09-03T07:51:00;95163.66;;;22.55;nan
6423;BME280;3244;42.708;23.288;2022-09-03T07:53:27;95167.59;;;22.27;nan
6423;BME280;3244;42.708;23.288;2022-09-03T07:56:00;95173.75;;;22.26;nan
6423;BME280;3244;42.708;23.288;2022-09-03T07:58:27;95175.38;;;22.05;nan
6423;BME280;3244;42.708;23.288;2022-09-03T08:00:56;95178.44;;;21.77;nan
6423;BME280;3244;42.708;23.288;2022-09-03T08:03:23;95171.84;;;21.95;nan
6423;BME280;3244;42.708;23.288;2022-09-03T08:05:49;95179.13;;;22.34;nan
6423;BME280;3244;42.708;23.288;2022-09-03T08:08:16;95172.06;;;22.48;nan
6423;BME280;3244;42.708;23.288;2022-09-03T08:10:43;95177.97;;;22.38;nan
6423;BME280;3244;42.708;23.288;2022-09-03T08:13:09;95176.31;;;22.37;nan
6423;BME280;3244;42.708;23.288;2022-09-03T08:15:36;95172.53;;;22.42;nan
6423;BME280;3244;42.708;23.288;2022-09-03T08:18:06;95175.63;;;22.24;nan
6423;BME280;3244;42.708;23.288;2022-09-03T08:20:32;95181.50;;;22.04;nan
6423;BME280;3244;42.708;23.288;2022-09-03T08:23:00;95175.84;;;21.99;nan
6423;BME280;3244;42.708;23.288;2022-09-03T08:25:28;95179.69;;;21.82;nan
6423;BME280;3244;42.708;23.288;2022-09-03T08:27:57;95171.81;;;21.61;nan
6423;BME280;3244;42.708;23.288;2022-09-03T08:30:24;95171.31;;;21.56;nan
6423;BME280;3244;42.708;23.288;2022-09-03T08:32:52;95177.88;;;21.38;nan
6423;BME280;3244;42.708;23.288;2022-09-03T08:35:20;95165.44;;;21.54;nan
6423;BME280;3244;42.708;23.288;2022-09-03T08:37:47;95167.38;;;22.08;nan
6423;BME280;3244;42.708;23.288;2022-09-03T08:40:16;95171.38;;;23.21;nan
6423;BME280;3244;42.708;23.288;2022-09-03T08:42:49;95162.44;;;23.66;nan
6423;BME280;3244;42.708;23.288;2022-09-03T08:45:21;95165.94;;;23.24;nan
6423;BME280;3244;42.708;23.288;2022-09-03T08:47:51;95163.97;;;23.16;nan
6423;BME280;3244;42.708;23.288;2022-09-03T08:50:25;95160.00;;;23.33;nan
6423;BME280;3244;42.708;23.288;2022-09-03T08:52:57;95164.72;;;23.28;nan
6423;BME280;3244;42.708;23.288;2022-09-03T08:55:27;95166.66;;;23.47;nan
6423;BME280;3244;42.708;23.288;2022-09-03T08:58:00;95165.81;;;23.88;nan
6423;BME280;3244;42.708;23.288;2022-09-03T09:00:38;95168.28;;;24.20;nan
6423;BME280;3244;42.708;23.288;2022-09-03T09:06:12;95172.41;;;23.50;nan
6423;BME280;3244;42.708;23.288;2022-09-03T09:08:49;95177.59;;;24.01;nan
6423;BME280;3244;42.708;23.288;2022-09-03T09:11:28;95169.63;;;24.14;nan
6423;BME280;3244;42.708;23.288;2022-09-03T09:14:01;95180.25;;;24.41;nan
6423;BME280;3244;42.708;23.288;2022-09-03T09:16:35;95169.44;;;24.06;nan
6423;BME280;3244;42.708;23.288;2022-09-03T09:19:16;95172.56;;;23.69;nan
6423;BME280;3244;42.708;23.288;2022-09-03T09:21:50;95175.44;;;23.34;nan
6423;BME280;3244;42.708;23.288;2022-09-03T09:24:22;95178.13;;;22.80;nan
6423;BME280;3244;42.708;23.288;2022-09-03T09:26:57;95175.75;;;22.77;nan
6423;BME280;3244;42.708;23.288;2022-09-03T09:29:26;95177.84;;;22.94;nan
6423;BME280;3244;42.708;23.288;2022-09-03T09:31:55;95179.75;;;23.45;nan
6423;BME280;3244;42.708;23.288;2022-09-03T09:34:23;95178.16;;;23.95;nan
6423;BME280;3244;42.708;23.288;2022-09-03T09:36:52;95176.19;;;23.88;nan
6423;BME280;3244;42.708;23.288;2022-09-03T09:39:20;95186.81;;;23.43;nan
6423;BME280;3244;42.708;23.288;2022-09-03T09:41:57;95176.69;;;23.40;nan
6423;BME280;3244;42.708;23.288;2022-09-03T09:44:25;95177.63;;;23.71;nan
6423;BME280;3244;42.708;23.288;2022-09-03T09:47:01;95181.16;;;24.00;nan
6423;BME280;3244;42.708;23.288;2022-09-03T09:49:32;95172.97;;;24.05;nan
6423;BME280;3244;42.708;23.288;2022-09-03T09:52:05;95178.44;;;24.02;nan
6423;BME280;3244;42.708;23.288;2022-09-03T09:54:33;95172.03;;;23.76;nan
6423;BME280;3244;42.708;23.288;2022-09-03T09:57:01;95178.50;;;23.60;nan
6423;BME280;3244;42.708;23.288;2022-09-03T09:59:29;95182.50;;;23.64;nan
6423;BME280;3244;42.708;23.288;2022-09-03T10:02:10;95186.28;;;23.60;nan
6423;BME280;3244;42.708;23.288;2022-09-03T10:04:38;95190.78;;;23.58;nan
6423;BME280;3244;42.708;23.288;2022-09-03T10:07:21;95180.50;;;23.78;nan
6423;BME280;3244;42.708;23.288;2022-09-03T10:10:00;95185.19;;;23.63;nan
6423;BME280;3244;42.708;23.288;2022-09-03T10:12:30;95179.47;;;23.90;nan
6423;BME280;3244;42.708;23.288;2022-09-03T10:15:03;95179.09;;;23.94;nan
6423;BME280;3244;42.708;23.288;2022-09-03T10:17:42;95176.53;;;24.04;nan
6423;BME280;3244;42.708;23.288;2022-09-03T10:20:12;95176.38;;;24.26;nan
6423;BME280;3244;42.708;23.288;2022-09-03T10:22:59;95178.31;;;24.24;nan
6423;BME280;3244;42.708;23.288;2022-09-03T10:25:35;95175.72;;;24.03;nan
6423;BME280;3244;42.708;23.288;2022-09-03T10:28:06;95166.88;;;23.85;nan
6423;BME280;3244;42.708;23.288;2022-09-03T10:30:44;95175.00;;;24.01;nan
6423;BME280;3244;42.708;23.288;2022-09-03T10:33:18;95172.97;;;24.05;nan
6423;BME280;3244;42.708;23.288;2022-09-03T10:35:52;95169.53;;;23.95;nan
6423;BME280;3244;42.708;23.288;2022-09-03T10:38:26;95172.03;;;24.06;nan
6423;BME280;3244;42.708;23.288;2022-09-03T10:41:02;95162.13;;;24.21;nan
6423;BME280;3244;42.708;23.288;2022-09-03T10:43:50;95167.78;;;24.35;nan
6423;BME280;3244;42.708;23.288;2022-09-03T10:46:25;95163.59;;;24.54;nan
6423;BME280;3244;42.708;23.288;2022-09-03T10:49:16;95173.88;;;24.65;nan
6423;BME280;3244;42.708;23.288;2022-09-03T10:51:50;95171.28;;;24.65;nan
6423;BME280;3244;42.708;23.288;2022-09-03T10:54:31;95181.38;;;24.49;nan
6423;BME280;3244;42.708;23.288;2022-09-03T10:57:07;95178.41;;;24.63;nan
6423;BME280;3244;42.708;23.288;2022-09-03T10:59:49;95172.13;;;24.85;nan
6423;BME280;3244;42.708;23.288;2022-09-03T11:02:41;95180.56;;;24.58;nan
6423;BME280;3244;42.708;23.288;2022-09-03T11:05:14;95175.69;;;24.74;nan
6423;BME280;3244;42.708;23.288;2022-09-03T11:07:48;95175.41;;;24.77;nan
6423;BME280;3244;42.708;23.288;2022-09-03T11:10:21;95174.88;;;24.73;nan
6423;BME280;3244;42.708;23.288;2022-09-03T11:12:57;95176.59;;;24.54;nan
6423;BME280;3244;42.708;23.288;2022-09-03T11:15:31;95172.84;;;24.06;nan
6423;BME280;3244;42.708;23.288;2022-09-03T11:18:03;95176.88;;;24.20;nan
6423;BME280;3244;42.708;23.288;2022-09-03T11:20:33;95184.13;;;24.47;nan
6423;BME280;3244;42.708;23.288;2022-09-03T11:23:02;95172.22;;;24.54;nan
6423;BME280;3244;42.708;23.288;2022-09-03T11:25:33;95171.53;;;24.52;nan
6423;BME280;3244;42.708;23.288;2022-09-03T11:28:14;95174.31;;;24.70;nan
6423;BME280;3244;42.708;23.288;2022-09-03T11:30:51;95171.72;;;24.70;nan
6423;BME280;3244;42.708;23.288;2022-09-03T11:33:26;95176.94;;;24.89;nan
6423;BME280;3244;42.708;23.288;2022-09-03T11:35:55;95162.00;;;24.72;nan
6423;BME280;3244;42.708;23.288;2022-09-03T11:38:22;95165.56;;;24.90;nan
6423;BME280;3244;42.708;23.288;2022-09-03T11:41:11;95170.28;;;24.96;nan
6423;BME280;3244;42.708;23.288;2022-09-03T11:43:39;95162.69;;;24.74;nan
6423;BME280;3244;42.708;23.288;2022-09-03T11:46:09;95169.13;;;24.70;nan
6423;BME280;3244;42.708;23.288;2022-09-03T11:48:41;95164.19;;;24.76;nan
6423;BME280;3244;42.708;23.288;2022-09-03T11:51:28;95162.59;;;24.95;nan
6423;BME280;3244;42.708;23.288;2022-09-03T11:53:58;95163.66;;;24.73;nan
6423;BME280;3244;42.708;23.288;2022-09-03T11:56:26;95163.34;;;24.66;nan
6423;BME280;3244;42.708;23.288;2022-09-03T11:59:15;95157.09;;;24.88;nan
6423;BME280;3244;42.708;23.288;2022-09-03T12:01:48;95173.84;;;24.95;nan
6423;BME280;3244;42.708;23.288;2022-09-03T12:04:19;95164.13;;;24.97;nan
6423;BME280;3244;42.708;23.288;2022-09-03T12:07:05;95158.72;;;24.89;nan
6423;BME280;3244;42.708;23.288;2022-09-03T12:13:01;95151.38;;;25.14;nan
6423;BME280;3244;42.708;23.288;2022-09-03T12:15:53;95148.75;;;24.94;nan
6423;BME280;3244;42.708;23.288;2022-09-03T12:18:28;95144.66;;;25.01;nan
6423;BME280;3244;42.708;23.288;2022-09-03T12:21:01;95136.59;;;25.04;nan
6423;BME280;3244;42.708;23.288;2022-09-03T12:23:29;95144.50;;;24.93;nan
6423;BME280;3244;42.708;23.288;2022-09-03T12:25:58;95138.78;;;24.99;nan
6423;BME280;3244;42.708;23.288;2022-09-03T12:28:30;95139.59;;;25.09;nan
6423;BME280;3244;42.708;23.288;2022-09-03T12:31:08;95137.41;;;25.05;nan
6423;BME280;3244;42.708;23.288;2022-09-03T12:33:46;95136.84;;;25.01;nan
6423;BME280;3244;42.708;23.288;2022-09-03T12:36:13;95141.38;;;25.09;nan
6423;BME280;3244;42.708;23.288;2022-09-03T12:38:40;95146.84;;;25.06;nan
6423;BME280;3244;42.708;23.288;2022-09-03T12:41:19;95154.84;;;24.55;nan
6423;BME280;3244;42.708;23.288;2022-09-03T12:43:52;95148.22;;;24.31;nan
6423;BME280;3244;42.708;23.288;2022-09-03T12:46:22;95152.38;;;24.44;nan
6423;BME280;3244;42.708;23.288;2022-09-03T12:48:52;95148.47;;;24.68;nan
6423;BME280;3244;42.708;23.288;2022-09-03T12:51:19;95131.72;;;24.52;nan
6423;BME280;3244;42.708;23.288;2022-09-03T12:53:46;95129.94;;;24.52;nan
6423;BME280;3244;42.708;23.288;2022-09-03T12:56:14;95133.03;;;24.27;nan
6423;BME280;3244;42.708;23.288;2022-09-03T12:58:47;95129.69;;;24.46;nan
6423;BME280;3244;42.708;23.288;2022-09-03T13:01:20;95128.34;;;24.70;nan
6423;BME280;3244;42.708;23.288;2022-09-03T13:03:51;95122.75;;;24.94;nan
6423;BME280;3244;42.708;23.288;2022-09-03T13:06:25;95125.88;;;24.79;nan
6423;BME280;3244;42.708;23.288;2022-09-03T13:08:56;95114.38;;;24.81;nan
6423;BME280;3244;42.708;23.288;2022-09-03T13:11:25;95113.72;;;24.89;nan
6423;BME280;3244;42.708;23.288;2022-09-03T13:13:54;95113.84;;;24.87;nan
6423;BME280;3244;42.708;23.288;2022-09-03T13:16:45;95107.00;;;24.86;nan
6423;BME280;3244;42.708;23.288;2022-09-03T13:19:21;95108.41;;;25.19;nan
6423;BME280;3244;42.708;23.288;2022-09-03T13:21:59;95102.34;;;25.38;nan
6423;BME280;3244;42.708;23.288;2022-09-03T13:24:42;95102.28;;;25.57;nan
6423;BME280;3244;42.708;23.288;2022-09-03T13:27:19;95102.84;;;25.70;nan
6423;BME280;3244;42.708;23.288;2022-09-03T13:30:03;95098.69;;;25.77;nan
6423;BME280;3244;42.708;23.288;2022-09-03T13:32:43;95094.34;;;25.49;nan
6423;BME280;3244;42.708;23.288;2022-09-03T13:35:21;95098.03;;;25.56;nan
6423;BME280;3244;42.708;23.288;2022-09-03T13:37:54;95096.81;;;25.70;nan
6423;BME280;3244;42.708;23.288;2022-09-03T13:40:26;95090.16;;;25.85;nan
6423;BME280;3244;42.708;23.288;2022-09-03T13:43:01;95097.06;;;25.57;nan
6423;BME280;3244;42.708;23.288;2022-09-03T13:45:35;95100.47;;;25.11;nan
6423;BME280;3244;42.708;23.288;2022-09-03T13:48:09;95096.34;;;24.70;nan
6423;BME280;3244;42.708;23.288;2022-09-03T13:51:02;95090.03;;;24.44;nan
6423;BME280;3244;42.708;23.288;2022-09-03T13:53:39;95096.53;;;24.28;nan
6423;BME280;3244;42.708;23.288;2022-09-03T13:56:18;95100.91;;;24.28;nan
6423;BME280;3244;42.708;23.288;2022-09-03T13:58:50;95099.25;;;24.17;nan
6423;BME280;3244;42.708;23.288;2022-09-03T14:01:23;95103.94;;;23.93;nan